»·PEaware :: N9135K KBUR-KLAS

N9135K :: KBUR-KLAS

FLIGHT INFORMATION

Flight Status: Arrived
Operator: Privately registered:
United States
More flights under this callsign
Pilot: John R. (31973)
Aircraft: MOONEY M-20K/M ENCORE BRAVO
(M20T)
More flights by this aircraft type
Origin: KBUR Bob Hope-Burbank
United States
Destination: KLAS McCarran Intl
United States
More flights between these airports :: More routes between these airports
Route: VNY3 DAG CRESO4
File this flight plan on PilotEdge
Remarks:
Altitude:
(Current/Filed)
11,000ft
Speed:
(Current/Filed)
150kts
Departed: 12-Jan-21 08:18 PM
Arrived: 12-Jan-21 09:44 PM
Distance/Time
Traveled:
193nm/1:26
Distance/Time
To Go:
Arrived

Flight Plot

Page will automatically refresh every two minutes.

Flight plan parsing failed; only flown route is shown


Map Options




Map Legend


Flown Route
Filed Route
Departure Airport
Arrival Airport
Navaid (VOR, NDB)
Fix

Horizontal Profiles

Position Reports

Time Latitude Longitude Heading Altitude Ground
Speed
12-Jan-21 20:05 34.195746 -118.359579 180 781ft 0kts
12-Jan-21 20:06 34.195708 -118.359705 310 781ft 2kts
12-Jan-21 20:07 34.196124 -118.360284 350 781ft 0kts
12-Jan-21 20:08 34.196124 -118.360284 350 781ft 0kts
12-Jan-21 20:09 34.196124 -118.360284 350 781ft 0kts
12-Jan-21 20:10 34.196627 -118.360668 282 781ft 8kts
12-Jan-21 20:11 34.196717 -118.365261 270 781ft 7kts
12-Jan-21 20:12 34.197102 -118.368954 356 781ft 5kts
12-Jan-21 20:13 34.197367 -118.368956 358 781ft 0kts
12-Jan-21 20:14 34.197367 -118.368956 358 781ft 0kts
12-Jan-21 20:15 34.197367 -118.368956 358 781ft 0kts
12-Jan-21 20:16 34.197367 -118.368956 358 781ft 0kts
12-Jan-21 20:17 34.197800 -118.361289 91 781ft 91kts
12-Jan-21 20:18 34.183638 -118.336666 210 1549ft 128kts
12-Jan-21 20:19 34.156576 -118.367869 224 2394ft 139kts
12-Jan-21 20:20 34.128486 -118.402397 237 3263ft 147kts
12-Jan-21 20:21 34.153622 -118.428935 351 4181ft 149kts
12-Jan-21 20:22 34.195309 -118.436132 351 5086ft 153kts
12-Jan-21 20:23 34.237826 -118.443339 353 5988ft 155kts
12-Jan-21 20:24 34.281319 -118.448283 354 6892ft 157kts
12-Jan-21 20:25 34.325069 -118.453020 354 7851ft 156kts
12-Jan-21 20:26 34.368427 -118.457717 354 8848ft 156kts
12-Jan-21 20:27 34.401880 -118.432686 56 9855ft 156kts
12-Jan-21 20:28 34.427467 -118.389939 52 10823ft 160kts
12-Jan-21 20:29 34.456399 -118.343739 52 10999ft 175kts
12-Jan-21 20:30 34.485662 -118.297137 52 10999ft 173kts
12-Jan-21 20:31 34.514808 -118.250624 52 10999ft 172kts
12-Jan-21 20:32 34.543789 -118.204338 52 10999ft 172kts
12-Jan-21 20:33 34.572730 -118.158011 52 11000ft 172kts
12-Jan-21 20:34 34.601666 -118.111620 52 11000ft 172kts
12-Jan-21 20:35 34.628751 -118.063900 71 11001ft 172kts
12-Jan-21 20:36 34.637557 -118.006803 81 11000ft 172kts
12-Jan-21 20:37 34.644001 -117.949158 82 10999ft 171kts
12-Jan-21 20:38 34.650252 -117.891892 82 10999ft 171kts
12-Jan-21 20:39 34.656464 -117.834633 82 11000ft 171kts
12-Jan-21 20:40 34.662686 -117.777428 80 10999ft 171kts
12-Jan-21 20:41 34.675130 -117.721533 73 11000ft 171kts
12-Jan-21 20:42 34.689107 -117.666468 72 11000ft 170kts
12-Jan-21 20:43 34.703199 -117.611365 72 11000ft 171kts
12-Jan-21 20:44 34.717346 -117.556002 72 11000ft 171kts
12-Jan-21 20:45 34.731419 -117.500821 72 11000ft 171kts
12-Jan-21 20:47 34.745475 -117.445588 72 11000ft 171kts
12-Jan-21 20:48 34.759504 -117.390350 72 11000ft 171kts
12-Jan-21 20:49 34.773560 -117.334883 72 11000ft 171kts
12-Jan-21 20:50 34.787525 -117.279660 72 11000ft 171kts
12-Jan-21 20:51 34.801492 -117.224315 72 11000ft 171kts
12-Jan-21 20:52 34.815447 -117.168896 72 11000ft 171kts
12-Jan-21 20:53 34.829408 -117.113334 73 11000ft 171kts
12-Jan-21 20:54 34.843285 -117.057988 73 11000ft 171kts
12-Jan-21 20:55 34.857191 -117.002409 73 11000ft 171kts
12-Jan-21 20:56 34.871097 -116.946974 73 11000ft 171kts
12-Jan-21 20:57 34.884939 -116.891498 73 11000ft 171kts
12-Jan-21 20:58 34.898742 -116.835979 73 11000ft 171kts
12-Jan-21 20:59 34.912510 -116.780472 73 11000ft 171kts
12-Jan-21 21:00 34.926300 -116.724754 73 11000ft 171kts
12-Jan-21 21:01 34.940019 -116.669204 73 11000ft 171kts
12-Jan-21 21:02 34.953717 -116.613630 73 11000ft 171kts
12-Jan-21 21:03 34.971094 -116.559582 62 11000ft 171kts
12-Jan-21 21:03 34.989719 -116.516949 61 11000ft 171kts
12-Jan-21 21:05 35.016229 -116.457226 61 11000ft 171kts
12-Jan-21 21:06 35.038907 -116.406120 61 11000ft 171kts
12-Jan-21 21:07 35.061545 -116.354983 61 11000ft 171kts
12-Jan-21 21:07 35.080429 -116.312289 61 11000ft 171kts
12-Jan-21 21:08 35.103080 -116.261011 61 11000ft 171kts
12-Jan-21 21:10 35.129489 -116.201129 61 11000ft 171kts
12-Jan-21 21:10 35.148322 -116.158361 61 11000ft 171kts
12-Jan-21 21:11 35.170873 -116.107080 61 11000ft 171kts
12-Jan-21 21:12 35.193404 -116.055767 61 11000ft 171kts
12-Jan-21 21:13 35.215998 -116.004234 61 11000ft 171kts
12-Jan-21 21:14 35.238495 -115.952845 61 11000ft 171kts
12-Jan-21 21:15 35.260974 -115.901423 61 11000ft 171kts
12-Jan-21 21:16 35.283449 -115.849944 61 11000ft 171kts
12-Jan-21 21:17 35.306000 -115.798332 60 10999ft 171kts
12-Jan-21 21:18 35.336049 -115.753078 47 11000ft 171kts
12-Jan-21 21:19 35.368352 -115.710125 47 11000ft 171kts
12-Jan-21 21:20 35.402135 -115.665013 47 10508ft 190kts
12-Jan-21 21:21 35.438275 -115.616706 47 10007ft 187kts
12-Jan-21 21:22 35.471925 -115.571720 47 9998ft 173kts
12-Jan-21 21:23 35.504184 -115.528557 47 9999ft 170kts
12-Jan-21 21:24 35.536146 -115.485631 47 9999ft 169kts
12-Jan-21 21:25 35.567960 -115.442919 47 9999ft 169kts
12-Jan-21 21:26 35.599867 -115.400039 47 10000ft 169kts
12-Jan-21 21:27 35.631661 -115.357260 47 10000ft 169kts
12-Jan-21 21:28 35.663699 -115.314794 38 9997ft 169kts
12-Jan-21 21:29 35.706649 -115.291102 22 10000ft 169kts
12-Jan-21 21:30 35.750308 -115.268605 22 10000ft 169kts
12-Jan-21 21:31 35.794481 -115.245821 22 9733ft 182kts
12-Jan-21 21:32 35.842235 -115.221175 22 8894ft 187kts
12-Jan-21 21:33 35.889887 -115.196566 22 7994ft 184kts
12-Jan-21 21:34 35.936926 -115.172259 22 7141ft 180kts
12-Jan-21 21:35 35.981554 -115.149185 22 6534ft 174kts
12-Jan-21 21:36 36.025883 -115.126254 22 6002ft 163kts
12-Jan-21 21:37 36.065417 -115.105792 22 5997ft 148kts
12-Jan-21 21:38 36.103269 -115.086188 22 5881ft 152kts
12-Jan-21 21:39 36.148579 -115.075833 331 4746ft 173kts
12-Jan-21 21:40 36.156606 -115.119702 234 3449ft 127kts
12-Jan-21 21:41 36.131935 -115.137522 204 2744ft 94kts
12-Jan-21 21:42 36.106233 -115.152519 204 2451ft 97kts
12-Jan-21 21:43 36.089205 -115.162922 281 2184ft 12kts
12-Jan-21 21:44 36.089639 -115.164197 286 2184ft 2kts
12-Jan-21 21:45 36.087261 -115.165853 205 2184ft 13kts
12-Jan-21 21:46 36.087255 -115.166727 292 2184ft 0kts

Navigation Log

Ident Type
Flight plan parsing failed, navigation log unavailable